sensor_id;sensor_type;location;lat;lon;timestamp;pressure;altitude;pressure_sealevel;temperature;humidity
62333;BME280;48624;49.812;8.562;2023-03-18T00:01:02;100117.75;;;10.80;73.76
62333;BME280;48624;49.812;8.562;2023-03-18T00:03:33;100108.63;;;10.84;73.44
62333;BME280;48624;49.812;8.562;2023-03-18T00:06:09;100117.66;;;10.81;73.37
62333;BME280;48624;49.812;8.562;2023-03-18T00:08:36;100125.59;;;10.81;73.99
62333;BME280;48624;49.812;8.562;2023-03-18T00:11:04;100112.34;;;10.81;74.18
62333;BME280;48624;49.812;8.562;2023-03-18T00:13:30;100117.53;;;10.83;74.67
62333;BME280;48624;49.812;8.562;2023-03-18T00:15:58;100122.56;;;10.75;75.31
62333;BME280;48624;49.812;8.562;2023-03-18T00:18:23;100126.97;;;10.63;77.30
62333;BME280;48624;49.812;8.562;2023-03-18T00:20:49;100122.19;;;10.68;76.55
62333;BME280;48624;49.812;8.562;2023-03-18T00:23:15;100122.66;;;10.73;76.25
62333;BME280;48624;49.812;8.562;2023-03-18T00:25:41;100131.47;;;10.74;76.15
62333;BME280;48624;49.812;8.562;2023-03-18T00:28:07;100141.22;;;10.73;75.67
62333;BME280;48624;49.812;8.562;2023-03-18T00:30:33;100137.22;;;10.67;76.10
62333;BME280;48624;49.812;8.562;2023-03-18T00:33:01;100144.44;;;10.65;76.32
62333;BME280;48624;49.812;8.562;2023-03-18T00:35:26;100137.88;;;10.58;77.29
62333;BME280;48624;49.812;8.562;2023-03-18T00:37:53;100140.63;;;10.57;77.79
62333;BME280;48624;49.812;8.562;2023-03-18T00:40:19;100140.97;;;10.52;77.96
62333;BME280;48624;49.812;8.562;2023-03-18T00:42:51;100121.66;;;10.25;79.91
62333;BME280;48624;49.812;8.562;2023-03-18T00:45:22;100125.41;;;10.47;78.68
62333;BME280;48624;49.812;8.562;2023-03-18T00:47:49;100127.00;;;10.50;77.97
62333;BME280;48624;49.812;8.562;2023-03-18T00:50:15;100123.91;;;10.56;77.89
62333;BME280;48624;49.812;8.562;2023-03-18T00:52:40;100131.75;;;10.58;78.10
62333;BME280;48624;49.812;8.562;2023-03-18T00:55:06;100135.97;;;10.60;77.85
62333;BME280;48624;49.812;8.562;2023-03-18T00:57:32;100136.09;;;10.59;78.08
62333;BME280;48624;49.812;8.562;2023-03-18T00:59:58;100149.53;;;10.55;78.73
62333;BME280;48624;49.812;8.562;2023-03-18T01:02:26;100147.31;;;10.62;78.08
62333;BME280;48624;49.812;8.562;2023-03-18T01:04:53;100157.78;;;10.64;78.60
62333;BME280;48624;49.812;8.562;2023-03-18T01:07:18;100155.47;;;10.59;79.16
62333;BME280;48624;49.812;8.562;2023-03-18T01:09:43;100151.19;;;10.45;80.53
62333;BME280;48624;49.812;8.562;2023-03-18T01:12:10;100152.53;;;10.51;80.10
62333;BME280;48624;49.812;8.562;2023-03-18T01:14:36;100149.25;;;10.47;80.21
62333;BME280;48624;49.812;8.562;2023-03-18T01:17:04;100152.09;;;10.57;79.52
62333;BME280;48624;49.812;8.562;2023-03-18T01:19:29;100148.38;;;10.60;79.30
62333;BME280;48624;49.812;8.562;2023-03-18T01:21:55;100144.78;;;10.61;78.93
62333;BME280;48624;49.812;8.562;2023-03-18T01:24:21;100159.28;;;10.68;78.62
62333;BME280;48624;49.812;8.562;2023-03-18T01:26:47;100150.56;;;10.66;77.90
62333;BME280;48624;49.812;8.562;2023-03-18T01:29:12;100142.50;;;10.67;77.05
62333;BME280;48624;49.812;8.562;2023-03-18T01:31:37;100136.53;;;10.77;77.49
62333;BME280;48624;49.812;8.562;2023-03-18T01:34:03;100144.59;;;10.75;77.09
62333;BME280;48624;49.812;8.562;2023-03-18T01:36:28;100147.47;;;10.72;77.69
62333;BME280;48624;49.812;8.562;2023-03-18T01:38:54;100151.91;;;10.72;78.03
62333;BME280;48624;49.812;8.562;2023-03-18T01:41:20;100146.84;;;10.68;77.74
62333;BME280;48624;49.812;8.562;2023-03-18T01:43:45;100149.50;;;10.68;77.74
62333;BME280;48624;49.812;8.562;2023-03-18T01:46:34;100160.66;;;10.61;78.88
62333;BME280;48624;49.812;8.562;2023-03-18T01:49:05;100153.00;;;10.69;77.13
62333;BME280;48624;49.812;8.562;2023-03-18T01:51:32;100150.13;;;10.72;77.91
62333;BME280;48624;49.812;8.562;2023-03-18T01:53:59;100153.50;;;10.74;77.05
62333;BME280;48624;49.812;8.562;2023-03-18T01:56:27;100141.50;;;10.57;78.06
62333;BME280;48624;49.812;8.562;2023-03-18T01:58:55;100136.59;;;10.64;78.14
62333;BME280;48624;49.812;8.562;2023-03-18T02:01:31;100145.22;;;10.54;78.36
62333;BME280;48624;49.812;8.562;2023-03-18T02:03:59;100143.72;;;10.63;78.21
62333;BME280;48624;49.812;8.562;2023-03-18T02:06:26;100132.88;;;10.66;78.17
62333;BME280;48624;49.812;8.562;2023-03-18T02:08:51;100130.22;;;10.66;78.16
62333;BME280;48624;49.812;8.562;2023-03-18T02:11:18;100137.75;;;10.73;77.74
62333;BME280;48624;49.812;8.562;2023-03-18T02:13:44;100138.81;;;10.70;78.12
62333;BME280;48624;49.812;8.562;2023-03-18T02:16:23;100129.03;;;10.71;77.76
62333;BME280;48624;49.812;8.562;2023-03-18T02:18:53;100127.25;;;10.71;78.17
62333;BME280;48624;49.812;8.562;2023-03-18T02:21:32;100131.91;;;10.67;78.15
62333;BME280;48624;49.812;8.562;2023-03-18T02:24:18;100132.44;;;10.73;77.89
62333;BME280;48624;49.812;8.562;2023-03-18T02:26:59;100125.41;;;10.72;78.15
62333;BME280;48624;49.812;8.562;2023-03-18T02:29:28;100119.28;;;10.71;78.53
62333;BME280;48624;49.812;8.562;2023-03-18T02:31:56;100126.72;;;10.66;79.75
62333;BME280;48624;49.812;8.562;2023-03-18T02:34:25;100122.84;;;10.83;77.44
62333;BME280;48624;49.812;8.562;2023-03-18T02:36:50;100129.88;;;10.71;78.44
62333;BME280;48624;49.812;8.562;2023-03-18T02:39:16;100125.41;;;10.72;78.59
62333;BME280;48624;49.812;8.562;2023-03-18T02:41:43;100131.69;;;10.71;78.77
62333;BME280;48624;49.812;8.562;2023-03-18T02:44:10;100131.47;;;10.74;78.84
62333;BME280;48624;49.812;8.562;2023-03-18T02:46:53;100140.19;;;10.63;79.84
62333;BME280;48624;49.812;8.562;2023-03-18T02:49:21;100149.59;;;10.67;79.74
62333;BME280;48624;49.812;8.562;2023-03-18T02:51:48;100138.06;;;10.68;80.02
62333;BME280;48624;49.812;8.562;2023-03-18T02:54:20;100145.41;;;10.64;80.93
62333;BME280;48624;49.812;8.562;2023-03-18T02:56:45;100146.06;;;10.55;81.93
62333;BME280;48624;49.812;8.562;2023-03-18T02:59:11;100138.13;;;10.55;81.83
62333;BME280;48624;49.812;8.562;2023-03-18T03:01:38;100142.91;;;10.50;81.62
62333;BME280;48624;49.812;8.562;2023-03-18T03:04:04;100137.25;;;10.54;81.18
62333;BME280;48624;49.812;8.562;2023-03-18T03:06:32;100133.84;;;10.65;80.39
62333;BME280;48624;49.812;8.562;2023-03-18T03:08:57;100131.25;;;10.52;80.83
62333;BME280;48624;49.812;8.562;2023-03-18T03:11:25;100142.22;;;10.59;80.40
62333;BME280;48624;49.812;8.562;2023-03-18T03:13:51;100154.75;;;10.57;80.48
62333;BME280;48624;49.812;8.562;2023-03-18T03:16:17;100155.13;;;10.64;79.59
62333;BME280;48624;49.812;8.562;2023-03-18T03:18:43;100159.66;;;10.50;81.20
62333;BME280;48624;49.812;8.562;2023-03-18T03:21:09;100159.13;;;10.45;81.51
62333;BME280;48624;49.812;8.562;2023-03-18T03:23:34;100160.81;;;10.33;84.66
62333;BME280;48624;49.812;8.562;2023-03-18T03:26:01;100157.34;;;10.33;84.42
62333;BME280;48624;49.812;8.562;2023-03-18T03:28:27;100168.34;;;10.26;86.12
62333;BME280;48624;49.812;8.562;2023-03-18T03:30:53;100169.97;;;10.16;88.39
62333;BME280;48624;49.812;8.562;2023-03-18T03:33:18;100169.22;;;10.27;85.08
62333;BME280;48624;49.812;8.562;2023-03-18T03:35:44;100167.88;;;10.08;89.05
62333;BME280;48624;49.812;8.562;2023-03-18T03:38:10;100172.72;;;10.14;87.40
62333;BME280;48624;49.812;8.562;2023-03-18T03:40:36;100175.91;;;10.07;88.79
62333;BME280;48624;49.812;8.562;2023-03-18T03:43:01;100166.88;;;10.22;85.49
62333;BME280;48624;49.812;8.562;2023-03-18T03:45:27;100157.25;;;10.21;85.87
62333;BME280;48624;49.812;8.562;2023-03-18T03:47:53;100150.00;;;9.86;90.32
62333;BME280;48624;49.812;8.562;2023-03-18T03:50:18;100154.44;;;9.85;89.04
62333;BME280;48624;49.812;8.562;2023-03-18T03:52:44;100160.59;;;9.86;88.61
62333;BME280;48624;49.812;8.562;2023-03-18T03:55:12;100160.25;;;9.78;89.44
62333;BME280;48624;49.812;8.562;2023-03-18T03:57:39;100167.78;;;9.84;87.29
62333;BME280;48624;49.812;8.562;2023-03-18T04:00:07;100164.69;;;9.90;86.92
62333;BME280;48624;49.812;8.562;2023-03-18T04:02:34;100161.53;;;9.85;86.03
62333;BME280;48624;49.812;8.562;2023-03-18T04:05:00;100165.31;;;9.94;86.36
62333;BME280;48624;49.812;8.562;2023-03-18T04:07:26;100167.66;;;9.98;85.78
62333;BME280;48624;49.812;8.562;2023-03-18T04:09:51;100167.47;;;10.02;85.92
62333;BME280;48624;49.812;8.562;2023-03-18T04:12:17;100166.59;;;10.14;84.54
62333;BME280;48624;49.812;8.562;2023-03-18T04:14:44;100171.25;;;10.10;85.15
62333;BME280;48624;49.812;8.562;2023-03-18T04:17:10;100165.00;;;10.11;84.75
62333;BME280;48624;49.812;8.562;2023-03-18T04:19:36;100164.16;;;10.11;84.53
62333;BME280;48624;49.812;8.562;2023-03-18T04:22:02;100160.09;;;10.18;84.22
62333;BME280;48624;49.812;8.562;2023-03-18T04:24:27;100156.31;;;10.09;84.99
62333;BME280;48624;49.812;8.562;2023-03-18T04:26:53;100160.34;;;10.02;85.05
62333;BME280;48624;49.812;8.562;2023-03-18T04:29:18;100161.22;;;10.03;85.19
62333;BME280;48624;49.812;8.562;2023-03-18T04:31:43;100164.50;;;10.06;85.31
62333;BME280;48624;49.812;8.562;2023-03-18T04:34:09;100166.28;;;10.06;83.62
62333;BME280;48624;49.812;8.562;2023-03-18T04:36:34;100166.91;;;9.96;84.69
62333;BME280;48624;49.812;8.562;2023-03-18T04:39:00;100176.13;;;9.91;84.75
62333;BME280;48624;49.812;8.562;2023-03-18T04:41:26;100169.69;;;9.82;85.26
62333;BME280;48624;49.812;8.562;2023-03-18T04:43:51;100180.06;;;9.72;85.54
62333;BME280;48624;49.812;8.562;2023-03-18T04:46:16;100178.25;;;9.60;85.71
62333;BME280;48624;49.812;8.562;2023-03-18T04:48:42;100179.72;;;9.51;85.86
62333;BME280;48624;49.812;8.562;2023-03-18T04:51:07;100170.50;;;9.43;85.68
62333;BME280;48624;49.812;8.562;2023-03-18T04:53:34;100168.50;;;9.47;84.34
62333;BME280;48624;49.812;8.562;2023-03-18T04:56:00;100162.94;;;9.11;86.54
62333;BME280;48624;49.812;8.562;2023-03-18T04:58:26;100172.88;;;9.08;87.45
62333;BME280;48624;49.812;8.562;2023-03-18T05:00:51;100166.94;;;9.04;85.45
62333;BME280;48624;49.812;8.562;2023-03-18T05:03:17;100172.69;;;9.11;85.10
62333;BME280;48624;49.812;8.562;2023-03-18T05:05:42;100178.28;;;9.19;84.75
62333;BME280;48624;49.812;8.562;2023-03-18T05:08:08;100175.56;;;9.21;82.93
62333;BME280;48624;49.812;8.562;2023-03-18T05:10:34;100182.53;;;9.22;82.95
62333;BME280;48624;49.812;8.562;2023-03-18T05:12:59;100181.25;;;9.27;81.57
62333;BME280;48624;49.812;8.562;2023-03-18T05:15:26;100181.09;;;9.30;81.33
62333;BME280;48624;49.812;8.562;2023-03-18T05:17:51;100177.66;;;9.28;80.41
62333;BME280;48624;49.812;8.562;2023-03-18T05:20:17;100177.06;;;9.25;79.55
62333;BME280;48624;49.812;8.562;2023-03-18T05:22:42;100184.97;;;9.38;80.00
62333;BME280;48624;49.812;8.562;2023-03-18T05:25:08;100196.34;;;9.79;79.41
62333;BME280;48624;49.812;8.562;2023-03-18T05:27:35;100188.84;;;9.73;79.60
62333;BME280;48624;49.812;8.562;2023-03-18T05:30:01;100193.19;;;9.61;79.99
62333;BME280;48624;49.812;8.562;2023-03-18T05:32:27;100194.34;;;9.69;79.68
62333;BME280;48624;49.812;8.562;2023-03-18T05:34:52;100188.50;;;9.38;81.12
62333;BME280;48624;49.812;8.562;2023-03-18T05:37:17;100188.22;;;9.69;79.97
62333;BME280;48624;49.812;8.562;2023-03-18T05:39:43;100184.25;;;9.36;81.33
62333;BME280;48624;49.812;8.562;2023-03-18T05:42:09;100190.09;;;9.41;81.94
62333;BME280;48624;49.812;8.562;2023-03-18T05:44:35;100200.47;;;9.57;81.33
62333;BME280;48624;49.812;8.562;2023-03-18T05:47:01;100208.16;;;9.47;82.04
62333;BME280;48624;49.812;8.562;2023-03-18T05:49:27;100197.91;;;9.42;83.18
62333;BME280;48624;49.812;8.562;2023-03-18T05:51:52;100199.59;;;9.43;83.03
62333;BME280;48624;49.812;8.562;2023-03-18T05:54:18;100197.06;;;9.42;83.61
62333;BME280;48624;49.812;8.562;2023-03-18T05:56:44;100197.81;;;9.44;83.51
62333;BME280;48624;49.812;8.562;2023-03-18T05:59:10;100195.00;;;9.20;84.26
62333;BME280;48624;49.812;8.562;2023-03-18T06:01:36;100197.16;;;9.40;82.77
62333;BME280;48624;49.812;8.562;2023-03-18T06:04:02;100200.97;;;9.36;80.85
62333;BME280;48624;49.812;8.562;2023-03-18T06:06:27;100199.72;;;9.42;82.20
62333;BME280;48624;49.812;8.562;2023-03-18T06:08:53;100202.25;;;9.56;79.99
62333;BME280;48624;49.812;8.562;2023-03-18T06:11:20;100210.66;;;9.63;79.26
62333;BME280;48624;49.812;8.562;2023-03-18T06:13:46;100203.44;;;9.65;79.15
62333;BME280;48624;49.812;8.562;2023-03-18T06:16:11;100217.00;;;9.74;78.87
62333;BME280;48624;49.812;8.562;2023-03-18T06:18:37;100216.03;;;9.75;78.75
62333;BME280;48624;49.812;8.562;2023-03-18T06:21:03;100216.69;;;9.91;78.07
62333;BME280;48624;49.812;8.562;2023-03-18T06:23:29;100215.41;;;9.84;78.59
62333;BME280;48624;49.812;8.562;2023-03-18T06:25:55;100205.56;;;9.73;77.33
62333;BME280;48624;49.812;8.562;2023-03-18T06:28:21;100211.16;;;9.81;77.93
62333;BME280;48624;49.812;8.562;2023-03-18T06:30:46;100217.09;;;9.85;76.88
62333;BME280;48624;49.812;8.562;2023-03-18T06:33:12;100213.72;;;9.83;76.44
62333;BME280;48624;49.812;8.562;2023-03-18T06:35:38;100225.34;;;9.80;76.27
62333;BME280;48624;49.812;8.562;2023-03-18T06:38:04;100220.16;;;9.92;75.46
62333;BME280;48624;49.812;8.562;2023-03-18T06:40:29;100221.31;;;10.00;75.29
62333;BME280;48624;49.812;8.562;2023-03-18T06:42:55;100222.59;;;9.95;74.42
62333;BME280;48624;49.812;8.562;2023-03-18T06:45:20;100223.88;;;9.89;74.43
62333;BME280;48624;49.812;8.562;2023-03-18T06:47:46;100218.16;;;9.95;74.39
62333;BME280;48624;49.812;8.562;2023-03-18T06:50:14;100228.22;;;9.77;74.77
62333;BME280;48624;49.812;8.562;2023-03-18T06:52:39;100232.34;;;9.94;74.73
62333;BME280;48624;49.812;8.562;2023-03-18T06:55:05;100231.38;;;9.95;75.14
62333;BME280;48624;49.812;8.562;2023-03-18T06:57:31;100234.88;;;10.09;74.35
62333;BME280;48624;49.812;8.562;2023-03-18T06:59:57;100239.22;;;9.97;74.11
62333;BME280;48624;49.812;8.562;2023-03-18T07:02:23;100232.13;;;9.97;73.70
62333;BME280;48624;49.812;8.562;2023-03-18T07:04:49;100238.47;;;9.95;73.90
62333;BME280;48624;49.812;8.562;2023-03-18T07:07:15;100233.19;;;10.08;73.44
62333;BME280;48624;49.812;8.562;2023-03-18T07:09:40;100239.09;;;10.11;73.07
62333;BME280;48624;49.812;8.562;2023-03-18T07:12:08;100238.25;;;10.24;73.24
62333;BME280;48624;49.812;8.562;2023-03-18T07:14:33;100241.66;;;10.39;72.27
62333;BME280;48624;49.812;8.562;2023-03-18T07:16:59;100240.50;;;10.43;71.94
62333;BME280;48624;49.812;8.562;2023-03-18T07:19:24;100248.53;;;10.41;71.76
62333;BME280;48624;49.812;8.562;2023-03-18T07:21:50;100240.56;;;10.54;71.93
62333;BME280;48624;49.812;8.562;2023-03-18T07:24:16;100250.22;;;10.43;71.09
62333;BME280;48624;49.812;8.562;2023-03-18T07:26:42;100257.91;;;10.72;71.21
62333;BME280;48624;49.812;8.562;2023-03-18T07:29:07;100252.69;;;10.83;71.37
62333;BME280;48624;49.812;8.562;2023-03-18T07:31:33;100257.88;;;10.85;71.04
62333;BME280;48624;49.812;8.562;2023-03-18T07:33:58;100250.88;;;10.83;69.96
62333;BME280;48624;49.812;8.562;2023-03-18T07:36:23;100257.19;;;10.94;69.48
62333;BME280;48624;49.812;8.562;2023-03-18T07:38:49;100255.56;;;11.04;69.41
62333;BME280;48624;49.812;8.562;2023-03-18T07:41:15;100257.38;;;11.04;68.91
62333;BME280;48624;49.812;8.562;2023-03-18T07:43:40;100258.94;;;11.19;68.80
62333;BME280;48624;49.812;8.562;2023-03-18T07:46:07;100264.03;;;11.34;69.35
62333;BME280;48624;49.812;8.562;2023-03-18T07:48:33;100266.75;;;11.57;68.17
62333;BME280;48624;49.812;8.562;2023-03-18T07:50:59;100265.25;;;11.65;68.42
62333;BME280;48624;49.812;8.562;2023-03-18T07:53:25;100267.19;;;11.75;67.16
62333;BME280;48624;49.812;8.562;2023-03-18T07:55:51;100264.38;;;12.01;67.75
62333;BME280;48624;49.812;8.562;2023-03-18T07:58:17;100264.53;;;12.22;67.02
62333;BME280;48624;49.812;8.562;2023-03-18T08:00:42;100262.38;;;12.27;66.35
62333;BME280;48624;49.812;8.562;2023-03-18T08:03:08;100275.28;;;12.55;66.37
62333;BME280;48624;49.812;8.562;2023-03-18T08:05:33;100267.31;;;12.55;64.13
62333;BME280;48624;49.812;8.562;2023-03-18T08:07:59;100261.47;;;12.84;64.97
62333;BME280;48624;49.812;8.562;2023-03-18T08:10:26;100268.56;;;13.06;63.89
62333;BME280;48624;49.812;8.562;2023-03-18T08:12:52;100264.16;;;13.16;63.76
62333;BME280;48624;49.812;8.562;2023-03-18T08:15:17;100267.53;;;13.30;63.65
62333;BME280;48624;49.812;8.562;2023-03-18T08:17:42;100269.91;;;13.44;62.99
62333;BME280;48624;49.812;8.562;2023-03-18T08:20:10;100275.47;;;13.74;61.19
62333;BME280;48624;49.812;8.562;2023-03-18T08:22:36;100267.78;;;13.81;59.75
62333;BME280;48624;49.812;8.562;2023-03-18T08:25:01;100269.78;;;13.88;60.22
62333;BME280;48624;49.812;8.562;2023-03-18T08:27:27;100267.41;;;14.07;58.06
62333;BME280;48624;49.812;8.562;2023-03-18T08:29:52;100271.94;;;13.95;58.22
62333;BME280;48624;49.812;8.562;2023-03-18T08:32:18;100271.94;;;14.16;56.98
62333;BME280;48624;49.812;8.562;2023-03-18T08:34:43;100277.66;;;14.11;53.83
62333;BME280;48624;49.812;8.562;2023-03-18T08:37:09;100274.69;;;14.36;53.75
62333;BME280;48624;49.812;8.562;2023-03-18T08:39:34;100276.28;;;14.17;54.88
62333;BME280;48624;49.812;8.562;2023-03-18T08:42:03;100282.09;;;14.32;55.49
62333;BME280;48624;49.812;8.562;2023-03-18T08:44:29;100279.66;;;14.50;54.33
62333;BME280;48624;49.812;8.562;2023-03-18T08:46:55;100277.78;;;14.72;54.02
62333;BME280;48624;49.812;8.562;2023-03-18T08:49:22;100276.22;;;14.69;52.98
62333;BME280;48624;49.812;8.562;2023-03-18T08:51:48;100282.38;;;14.70;53.35
62333;BME280;48624;49.812;8.562;2023-03-18T08:54:14;100289.59;;;14.79;52.99
62333;BME280;48624;49.812;8.562;2023-03-18T08:56:40;100282.69;;;15.18;50.55
62333;BME280;48624;49.812;8.562;2023-03-18T08:59:06;100290.16;;;14.83;52.06
62333;BME280;48624;49.812;8.562;2023-03-18T09:01:32;100278.69;;;14.92;52.84
62333;BME280;48624;49.812;8.562;2023-03-18T09:03:57;100282.38;;;15.11;51.25
62333;BME280;48624;49.812;8.562;2023-03-18T09:06:23;100283.94;;;15.33;50.05
62333;BME280;48624;49.812;8.562;2023-03-18T09:08:48;100288.44;;;15.23;50.85
62333;BME280;48624;49.812;8.562;2023-03-18T09:11:14;100289.72;;;15.58;49.91
62333;BME280;48624;49.812;8.562;2023-03-18T09:13:40;100294.91;;;15.60;49.74
62333;BME280;48624;49.812;8.562;2023-03-18T09:16:05;100282.69;;;15.97;49.38
62333;BME280;48624;49.812;8.562;2023-03-18T09:18:32;100288.00;;;15.87;49.38
62333;BME280;48624;49.812;8.562;2023-03-18T09:20:59;100283.78;;;16.04;48.00
62333;BME280;48624;49.812;8.562;2023-03-18T09:23:24;100278.03;;;15.89;49.25
62333;BME280;48624;49.812;8.562;2023-03-18T09:25:52;100280.56;;;16.00;49.59
62333;BME280;48624;49.812;8.562;2023-03-18T09:28:19;100279.41;;;16.13;48.60
62333;BME280;48624;49.812;8.562;2023-03-18T09:30:44;100268.13;;;16.19;47.58
62333;BME280;48624;49.812;8.562;2023-03-18T09:33:10;100264.78;;;16.45;47.89
62333;BME280;48624;49.812;8.562;2023-03-18T09:35:36;100265.94;;;16.70;47.21
62333;BME280;48624;49.812;8.562;2023-03-18T09:38:02;100259.78;;;16.32;47.35
62333;BME280;48624;49.812;8.562;2023-03-18T09:40:31;100259.72;;;16.80;46.65
62333;BME280;48624;49.812;8.562;2023-03-18T09:43:12;100250.78;;;16.89;46.36
62333;BME280;48624;49.812;8.562;2023-03-18T09:53:39;100257.03;;;17.26;46.38
62333;BME280;48624;49.812;8.562;2023-03-18T09:56:13;100253.78;;;17.40;46.45
62333;BME280;48624;49.812;8.562;2023-03-18T09:58:48;100256.81;;;16.91;45.40
62333;BME280;48624;49.812;8.562;2023-03-18T10:01:19;100254.31;;;17.44;46.02
62333;BME280;48624;49.812;8.562;2023-03-18T10:03:50;100255.16;;;17.63;45.38
62333;BME280;48624;49.812;8.562;2023-03-18T10:06:20;100250.84;;;17.70;44.98
62333;BME280;48624;49.812;8.562;2023-03-18T10:11:40;100252.47;;;17.63;46.31
62333;BME280;48624;49.812;8.562;2023-03-18T10:17:12;100259.50;;;17.64;45.21
62333;BME280;48624;49.812;8.562;2023-03-18T10:19:44;100256.47;;;17.58;45.24
62333;BME280;48624;49.812;8.562;2023-03-18T10:25:04;100252.25;;;17.56;45.53
62333;BME280;48624;49.812;8.562;2023-03-18T10:33:16;100256.22;;;18.49;43.40
62333;BME280;48624;49.812;8.562;2023-03-18T10:38:28;100243.88;;;18.65;42.61
62333;BME280;48624;49.812;8.562;2023-03-18T10:40:55;100245.06;;;18.70;43.01
62333;BME280;48624;49.812;8.562;2023-03-18T10:43:23;100253.41;;;19.19;41.48
62333;BME280;48624;49.812;8.562;2023-03-18T10:46:00;100249.84;;;19.02;42.03
62333;BME280;48624;49.812;8.562;2023-03-18T10:48:30;100246.53;;;19.16;40.33
62333;BME280;48624;49.812;8.562;2023-03-18T10:51:08;100236.47;;;19.35;39.82
62333;BME280;48624;49.812;8.562;2023-03-18T10:53:47;100234.78;;;19.34;40.69
62333;BME280;48624;49.812;8.562;2023-03-18T10:56:17;100234.78;;;19.42;41.22
62333;BME280;48624;49.812;8.562;2023-03-18T10:58:43;100241.69;;;19.53;40.91
62333;BME280;48624;49.812;8.562;2023-03-18T11:01:11;100242.50;;;19.70;40.77
62333;BME280;48624;49.812;8.562;2023-03-18T11:03:59;100242.03;;;19.50;40.35
62333;BME280;48624;49.812;8.562;2023-03-18T11:06:55;100245.69;;;19.90;40.26
62333;BME280;48624;49.812;8.562;2023-03-18T11:09:21;100238.16;;;19.36;40.95
62333;BME280;48624;49.812;8.562;2023-03-18T11:11:49;100237.81;;;19.39;41.64
62333;BME280;48624;49.812;8.562;2023-03-18T11:14:21;100239.63;;;19.88;41.24
62333;BME280;48624;49.812;8.562;2023-03-18T11:17:03;100241.84;;;19.18;42.69
62333;BME280;48624;49.812;8.562;2023-03-18T11:19:32;100236.66;;;19.33;42.75
62333;BME280;48624;49.812;8.562;2023-03-18T11:24:36;100240.22;;;20.23;39.87
62333;BME280;48624;49.812;8.562;2023-03-18T11:27:32;100233.41;;;20.04;40.00
62333;BME280;48624;49.812;8.562;2023-03-18T11:30:02;100233.72;;;20.01;39.49
62333;BME280;48624;49.812;8.562;2023-03-18T11:32:32;100227.59;;;19.59;40.53
62333;BME280;48624;49.812;8.562;2023-03-18T11:35:03;100239.31;;;19.58;41.44
62333;BME280;48624;49.812;8.562;2023-03-18T11:37:35;100235.59;;;20.09;40.83
62333;BME280;48624;49.812;8.562;2023-03-18T11:40:15;100233.41;;;20.04;40.12
62333;BME280;48624;49.812;8.562;2023-03-18T11:42:43;100225.84;;;20.00;41.09
62333;BME280;48624;49.812;8.562;2023-03-18T11:47:47;100227.91;;;19.56;40.88
62333;BME280;48624;49.812;8.562;2023-03-18T11:50:22;100233.88;;;20.56;40.26
62333;BME280;48624;49.812;8.562;2023-03-18T11:55:47;100222.94;;;21.21;38.48
62333;BME280;48624;49.812;8.562;2023-03-18T12:01:13;100221.06;;;21.83;37.46
62333;BME280;48624;49.812;8.562;2023-03-18T12:06:30;100214.94;;;22.50;36.64
62333;BME280;48624;49.812;8.562;2023-03-18T12:09:16;100206.66;;;21.91;37.37
62333;BME280;48624;49.812;8.562;2023-03-18T12:12:07;100198.66;;;22.28;36.09
62333;BME280;48624;49.812;8.562;2023-03-18T12:14:44;100201.56;;;23.00;35.58
62333;BME280;48624;49.812;8.562;2023-03-18T12:23:47;100188.06;;;21.43;36.40
62333;BME280;48624;49.812;8.562;2023-03-18T12:26:01;100174.66;;;22.03;36.72
62333;BME280;48624;49.812;8.562;2023-03-18T12:28:47;100176.38;;;22.41;36.07
62333;BME280;48624;49.812;8.562;2023-03-18T12:33:58;100172.97;;;22.02;35.89
62333;BME280;48624;49.812;8.562;2023-03-18T12:36:44;100171.25;;;22.46;35.65
62333;BME280;48624;49.812;8.562;2023-03-18T12:42:10;100168.25;;;22.71;35.95
62333;BME280;48624;49.812;8.562;2023-03-18T12:44:57;100172.19;;;22.38;35.85
62333;BME280;48624;49.812;8.562;2023-03-18T12:47:38;100163.53;;;22.58;36.43
62333;BME280;48624;49.812;8.562;2023-03-18T12:50:08;100167.19;;;22.35;37.59
62333;BME280;48624;49.812;8.562;2023-03-18T12:52:46;100162.44;;;22.37;36.75
62333;BME280;48624;49.812;8.562;2023-03-18T12:55:27;100163.06;;;22.39;37.63
62333;BME280;48624;49.812;8.562;2023-03-18T13:00:38;100165.91;;;22.16;36.89
62333;BME280;48624;49.812;8.562;2023-03-18T13:03:30;100156.16;;;22.00;37.36
62333;BME280;48624;49.812;8.562;2023-03-18T13:06:07;100167.59;;;22.02;37.76
62333;BME280;48624;49.812;8.562;2023-03-18T13:08:47;100166.38;;;22.04;37.44
62333;BME280;48624;49.812;8.562;2023-03-18T13:11:39;100159.34;;;21.73;38.05
62333;BME280;48624;49.812;8.562;2023-03-18T13:16:37;100156.16;;;21.70;37.53
62333;BME280;48624;49.812;8.562;2023-03-18T13:19:03;100157.53;;;21.27;36.94
62333;BME280;48624;49.812;8.562;2023-03-18T13:21:35;100151.84;;;21.45;37.61
62333;BME280;48624;49.812;8.562;2023-03-18T13:29:39;100151.25;;;20.97;39.04
62333;BME280;48624;49.812;8.562;2023-03-18T13:43:54;100140.22;;;21.60;38.38
62333;BME280;48624;49.812;8.562;2023-03-18T13:46:28;100144.88;;;22.11;38.20
62333;BME280;48624;49.812;8.562;2023-03-18T13:48:57;100144.56;;;22.36;37.22
62333;BME280;48624;49.812;8.562;2023-03-18T13:53:54;100139.91;;;22.82;35.54
62333;BME280;48624;49.812;8.562;2023-03-18T14:04:50;100136.16;;;23.05;34.40
62333;BME280;48624;49.812;8.562;2023-03-18T14:07:20;100142.66;;;22.89;34.98
62333;BME280;48624;49.812;8.562;2023-03-18T14:22:44;100127.41;;;23.95;32.35
62333;BME280;48624;49.812;8.562;2023-03-18T14:28:10;100111.09;;;23.39;32.11
62333;BME280;48624;49.812;8.562;2023-03-18T14:33:05;100120.22;;;24.09;31.38
62333;BME280;48624;49.812;8.562;2023-03-18T14:36:07;100112.94;;;24.99;29.64
62333;BME280;48624;49.812;8.562;2023-03-18T14:38:45;100109.41;;;25.25;30.30
62333;BME280;48624;49.812;8.562;2023-03-18T14:41:18;100106.47;;;25.27;29.22